createdAt,value
2023-03-05T00:01:39.941Z,93.33
2023-03-05T00:04:11.647Z,93.78
2023-03-05T00:06:39.609Z,93.34
2023-03-05T00:09:07.582Z,93.73
2023-03-05T00:11:35.520Z,94.79
2023-03-05T00:14:04.704Z,95.40
2023-03-05T00:16:33.148Z,95.30
2023-03-05T00:19:01.760Z,95.22
2023-03-05T00:21:30.892Z,95.75
2023-03-05T00:24:03.943Z,95.32
2023-03-05T00:26:34.947Z,94.85
2023-03-05T00:29:03.819Z,95.73
2023-03-05T00:31:34.298Z,95.57
2023-03-05T00:34:05.447Z,96.15
2023-03-05T00:36:33.583Z,95.87
2023-03-05T00:39:01.707Z,95.26
2023-03-05T00:41:29.717Z,96.13
2023-03-05T00:43:57.841Z,96.29
2023-03-05T00:46:27.664Z,96.09
2023-03-05T00:48:57.267Z,96.41
2023-03-05T00:51:25.161Z,95.08
2023-03-05T00:53:53.092Z,95.83
2023-03-05T00:56:21.324Z,95.98
2023-03-05T00:58:49.367Z,96.37
2023-03-05T01:01:17.535Z,96.10
2023-03-05T01:03:45.655Z,95.94
2023-03-05T01:06:16.575Z,96.24
2023-03-05T01:08:45.401Z,96.43
2023-03-05T01:11:13.366Z,95.29
2023-03-05T01:13:41.471Z,95.60
2023-03-05T01:16:09.704Z,96.32
2023-03-05T01:18:38.547Z,95.65
2023-03-05T01:21:07.339Z,95.41
2023-03-05T01:23:37.589Z,95.70
2023-03-05T01:26:06.737Z,96.02
2023-03-05T01:28:34.869Z,95.57
2023-03-05T01:31:02.801Z,94.82
2023-03-05T01:33:30.718Z,95.80
2023-03-05T01:35:58.680Z,95.58
2023-03-05T01:38:26.556Z,95.55
2023-03-05T01:40:54.472Z,95.84
2023-03-05T01:43:26.712Z,95.07
2023-03-05T01:46:13.642Z,95.31
2023-03-05T01:48:47.704Z,95.36
2023-03-05T01:51:16.012Z,95.91
2023-03-05T01:53:44.211Z,95.62
2023-03-05T01:56:12.472Z,95.66
2023-03-05T01:58:40.698Z,95.85
2023-03-05T02:01:08.880Z,94.66
2023-03-05T02:03:37.689Z,95.12
2023-03-05T02:06:05.876Z,94.99
2023-03-05T02:08:33.880Z,95.41
2023-03-05T02:11:02.291Z,94.75
2023-03-05T02:13:35.800Z,95.35
2023-03-05T02:16:04.196Z,95.91
2023-03-05T02:18:32.148Z,95.89
2023-03-05T02:21:04.689Z,95.67
2023-03-05T02:23:36.638Z,94.95
2023-03-05T02:26:06.834Z,95.05
2023-03-05T02:28:44.732Z,94.43
2023-03-05T02:31:19.133Z,95.40
2023-03-05T02:33:48.002Z,95.39
2023-03-05T02:36:17.720Z,94.82
2023-03-05T02:38:47.711Z,95.79
2023-03-05T02:41:16.390Z,96.45
2023-03-05T02:43:44.763Z,96.15
2023-03-05T02:46:13.137Z,96.58
2023-03-05T02:48:41.142Z,96.33
2023-03-05T02:51:11.866Z,96.31
2023-03-05T02:53:39.743Z,96.49
2023-03-05T02:56:07.729Z,96.38
2023-03-05T02:58:36.791Z,96.36
2023-03-05T03:01:04.952Z,96.35
2023-03-05T03:03:33.204Z,95.88
2023-03-05T03:06:01.320Z,95.00
2023-03-05T03:08:29.242Z,94.84
2023-03-05T03:10:57.047Z,95.08
2023-03-05T03:13:25.563Z,95.36
2023-03-05T03:16:03.112Z,94.48
2023-03-05T03:18:31.042Z,95.04
2023-03-05T03:20:59.368Z,95.45
2023-03-05T03:23:27.955Z,95.74
2023-03-05T03:25:55.862Z,96.06
2023-03-05T03:28:24.228Z,96.48
2023-03-05T03:30:52.093Z,96.54
2023-03-05T03:33:20.184Z,96.73
2023-03-05T03:35:48.139Z,96.75
2023-03-05T03:38:16.033Z,96.61
2023-03-05T03:40:43.931Z,96.79
2023-03-05T03:43:11.930Z,96.36
2023-03-05T03:45:43.961Z,96.59
2023-03-05T03:48:12.000Z,96.78
2023-03-05T03:50:44.213Z,96.76
2023-03-05T03:53:15.239Z,96.61
2023-03-05T03:55:43.513Z,96.81
2023-03-05T03:58:11.494Z,97.08
2023-03-05T04:00:40.791Z,96.05
2023-03-05T04:03:09.165Z,95.55
2023-03-05T04:05:37.161Z,95.71
2023-03-05T04:08:05.957Z,95.79
2023-03-05T04:10:33.840Z,96.18
2023-03-05T04:13:01.663Z,96.84
2023-03-05T04:15:31.071Z,96.81
2023-03-05T04:17:59.193Z,97.74
2023-03-05T04:20:27.327Z,97.76
2023-03-05T04:22:55.161Z,98.07
2023-03-05T04:25:23.215Z,98.20
2023-03-05T04:27:52.224Z,98.54
2023-03-05T04:30:20.168Z,98.54
2023-03-05T04:32:48.036Z,98.65
2023-03-05T04:35:15.956Z,98.86
2023-03-05T04:37:43.867Z,98.60
2023-03-05T04:40:12.281Z,98.30
2023-03-05T04:42:40.157Z,98.86
2023-03-05T04:45:08.881Z,98.91
2023-03-05T04:47:36.883Z,99.75
2023-03-05T04:50:06.372Z,99.91
2023-03-05T04:52:34.462Z,100.00
2023-03-05T04:55:02.450Z,100.00
2023-03-05T04:57:30.424Z,99.50
2023-03-05T04:59:58.617Z,99.84
2023-03-05T05:02:26.634Z,99.41
2023-03-05T05:04:54.613Z,99.62
2023-03-05T05:07:22.518Z,99.05
2023-03-05T05:09:50.360Z,98.20
2023-03-05T05:12:18.354Z,98.84
2023-03-05T05:14:46.311Z,98.07
2023-03-05T05:17:14.294Z,98.13
2023-03-05T05:19:42.248Z,98.44
2023-03-05T05:22:10.160Z,98.64
2023-03-05T05:24:37.980Z,98.98
2023-03-05T05:27:05.981Z,99.25
2023-03-05T05:29:33.901Z,99.27
2023-03-05T05:32:01.856Z,99.59
2023-03-05T05:34:29.839Z,99.47
2023-03-05T05:36:57.800Z,99.86
2023-03-05T05:39:25.635Z,99.92
2023-03-05T05:41:54.008Z,98.58
2023-03-05T05:44:21.850Z,98.25
2023-03-05T05:46:49.892Z,98.33
2023-03-05T05:49:17.927Z,98.05
2023-03-05T05:51:46.132Z,97.97
2023-03-05T05:54:15.259Z,98.29
2023-03-05T05:56:43.251Z,98.78
2023-03-05T05:59:11.291Z,100.00
2023-03-05T06:01:39.529Z,100.00
2023-03-05T06:04:07.491Z,100.00
2023-03-05T06:06:35.536Z,99.59
2023-03-05T06:09:04.360Z,98.72
2023-03-05T06:11:32.450Z,98.78
2023-03-05T06:14:02.739Z,99.10
2023-03-05T06:16:31.318Z,99.04
2023-03-05T06:19:00.371Z,98.40
2023-03-05T06:21:28.239Z,97.29
2023-03-05T06:23:58.855Z,95.08
2023-03-05T06:26:27.010Z,93.69
2023-03-05T06:28:55.107Z,93.72
2023-03-05T06:31:28.130Z,94.32
2023-03-05T06:34:03.054Z,95.15
2023-03-05T06:36:31.643Z,95.49
2023-03-05T06:39:00.504Z,94.71
2023-03-05T06:41:31.000Z,94.72
2023-03-05T06:44:03.493Z,93.96
2023-03-05T06:46:40.635Z,93.46
2023-03-05T06:49:09.758Z,93.77
2023-03-05T06:51:40.393Z,92.27
2023-03-05T06:54:11.788Z,91.36
2023-03-05T06:56:42.050Z,91.24
2023-03-05T06:59:12.175Z,90.38
2023-03-05T07:01:40.332Z,89.61
2023-03-05T07:04:08.529Z,89.02
2023-03-05T07:06:38.735Z,87.67
2023-03-05T07:09:08.128Z,87.19
2023-03-05T07:11:36.413Z,85.00
2023-03-05T07:14:04.669Z,85.62
2023-03-05T07:16:34.946Z,84.86
2023-03-05T07:19:05.694Z,83.14
2023-03-05T07:21:36.903Z,82.75
2023-03-05T07:24:06.758Z,83.01
2023-03-05T07:26:35.088Z,82.25
2023-03-05T07:29:03.655Z,81.44
2023-03-05T07:31:32.350Z,79.64
2023-03-05T07:34:02.654Z,78.67
2023-03-05T07:36:31.249Z,76.56
2023-03-05T07:38:59.107Z,75.37
2023-03-05T07:41:27.080Z,74.79
2023-03-05T07:43:55.440Z,74.32
2023-03-05T07:46:29.533Z,74.26
2023-03-05T07:48:57.568Z,74.38
2023-03-05T07:51:26.805Z,72.36
2023-03-05T07:53:57.605Z,73.12
2023-03-05T07:56:31.928Z,72.77
2023-03-05T07:59:00.368Z,72.54
2023-03-05T08:01:29.974Z,72.99
2023-03-05T08:03:57.986Z,72.40
2023-03-05T08:06:25.980Z,72.40
2023-03-05T08:08:53.813Z,71.22
2023-03-05T08:11:21.796Z,71.14
2023-03-05T08:13:51.322Z,70.59
2023-03-05T08:16:21.580Z,67.29
2023-03-05T08:18:49.508Z,67.36
2023-03-05T08:21:23.405Z,65.19
2023-03-05T08:23:51.321Z,65.52
2023-03-05T08:26:22.115Z,66.00
2023-03-05T08:28:50.936Z,65.19
2023-03-05T08:31:21.833Z,66.10
2023-03-05T08:33:52.156Z,65.57
2023-03-05T08:36:20.559Z,64.31
2023-03-05T08:38:48.819Z,62.40
2023-03-05T08:41:18.818Z,63.92
2023-03-05T08:43:47.069Z,63.85
2023-03-05T08:46:16.222Z,64.14
2023-03-05T08:48:44.763Z,63.57
2023-03-05T08:51:19.007Z,63.07
2023-03-05T08:53:48.222Z,64.70
2023-03-05T08:56:16.134Z,65.32
2023-03-05T08:58:44.869Z,64.34
2023-03-05T09:01:13.695Z,63.45
2023-03-05T09:03:42.180Z,63.90
2023-03-05T09:06:12.640Z,65.07
2023-03-05T09:08:40.717Z,63.35
2023-03-05T09:11:11.820Z,63.28
2023-03-05T09:13:39.965Z,62.75
2023-03-05T09:16:11.241Z,62.46
2023-03-05T09:18:40.758Z,66.27
2023-03-05T09:21:14.093Z,64.35
2023-03-05T09:23:42.732Z,63.33
2023-03-05T09:26:12.550Z,64.13
2023-03-05T09:28:41.020Z,65.38
2023-03-05T09:31:10.531Z,64.11
2023-03-05T09:33:39.360Z,62.97
2023-03-05T09:36:27.519Z,62.86
2023-03-05T09:38:55.892Z,61.59
2023-03-05T09:42:04.184Z,60.80
2023-03-05T09:44:59.325Z,63.10
2023-03-05T09:47:32.865Z,61.26
2023-03-05T09:50:18.969Z,61.03
2023-03-05T09:52:59.767Z,59.46
2023-03-05T09:55:44.831Z,60.01
2023-03-05T09:58:30.550Z,59.03
2023-03-05T10:01:02.770Z,59.73
2023-03-05T10:03:42.609Z,60.23
2023-03-05T10:06:23.752Z,61.26
2023-03-05T10:09:09.945Z,62.10
2023-03-05T10:11:59.262Z,60.54
2023-03-05T10:14:31.160Z,60.33
2023-03-05T10:17:20.897Z,58.70
2023-03-05T10:20:13.203Z,59.58
2023-03-05T10:23:39.453Z,60.19
2023-03-05T10:26:36.756Z,57.78
2023-03-05T10:29:13.543Z,57.63
2023-03-05T10:32:04.588Z,56.18
2023-03-05T10:35:01.838Z,58.15
2023-03-05T10:37:48.892Z,57.02
2023-03-05T10:40:30.014Z,54.95
2023-03-05T10:43:15.683Z,58.17
2023-03-05T10:45:46.700Z,58.95
2023-03-05T10:48:43.506Z,56.21
2023-03-05T10:51:23.325Z,57.94
2023-03-05T10:53:56.599Z,57.07
2023-03-05T10:56:27.768Z,53.66
2023-03-05T10:58:55.854Z,52.40
2023-03-05T11:01:28.272Z,52.53
2023-03-05T11:04:01.616Z,52.52
2023-03-05T11:06:46.537Z,53.20
2023-03-05T11:09:29.456Z,53.71
2023-03-05T11:12:19.600Z,51.69
2023-03-05T11:15:05.121Z,53.77
2023-03-05T11:17:38.326Z,52.04
2023-03-05T11:20:27.765Z,53.80
2023-03-05T11:23:05.882Z,51.84
2023-03-05T11:25:35.441Z,52.23
2023-03-05T11:28:04.290Z,51.93
2023-03-05T11:30:35.222Z,51.57
2023-03-05T11:33:22.689Z,51.42
2023-03-05T11:35:52.680Z,50.06
2023-03-05T11:38:24.678Z,50.12
2023-03-05T11:40:55.671Z,50.32
2023-03-05T11:43:25.886Z,51.67
2023-03-05T11:46:01.713Z,52.58
2023-03-05T11:48:36.147Z,51.62
2023-03-05T11:51:13.899Z,51.08
2023-03-05T11:53:44.755Z,50.91
2023-03-05T11:56:21.079Z,50.60
2023-03-05T11:59:03.108Z,50.34
2023-03-05T12:01:40.683Z,49.35
2023-03-05T12:04:08.923Z,50.43
2023-03-05T12:06:49.255Z,52.08
2023-03-05T12:09:23.178Z,53.19
2023-03-05T12:11:56.709Z,50.84
2023-03-05T12:14:28.112Z,50.37
2023-03-05T12:17:04.543Z,50.31
2023-03-05T12:19:41.424Z,50.02
2023-03-05T12:22:27.423Z,49.91
2023-03-05T12:25:34.884Z,49.59
2023-03-05T12:28:03.326Z,50.80
2023-03-05T12:30:37.189Z,48.10
2023-03-05T12:33:26.765Z,49.17
2023-03-05T12:35:55.037Z,47.00
2023-03-05T12:38:31.885Z,46.36
2023-03-05T12:41:25.861Z,47.09
2023-03-05T12:44:07.056Z,48.42
2023-03-05T12:46:54.822Z,48.26
2023-03-05T12:49:27.196Z,50.11
2023-03-05T12:52:01.351Z,47.09
2023-03-05T12:54:31.959Z,48.39
2023-03-05T12:57:06.845Z,46.85
2023-03-05T12:59:45.790Z,47.55
2023-03-05T13:02:32.542Z,47.94
2023-03-05T13:05:14.860Z,48.49
2023-03-05T13:07:42.884Z,49.43
2023-03-05T13:10:29.297Z,48.55
2023-03-05T13:12:58.757Z,47.27
2023-03-05T13:15:27.258Z,46.66
2023-03-05T13:17:58.144Z,46.37
2023-03-05T13:20:28.894Z,46.06
2023-03-05T13:23:20.799Z,45.14
2023-03-05T13:26:01.440Z,45.99
2023-03-05T13:28:32.553Z,46.07
2023-03-05T13:31:05.114Z,47.45
2023-03-05T13:33:37.846Z,47.34
2023-03-05T13:36:06.851Z,48.37
2023-03-05T13:38:39.255Z,47.68
2023-03-05T13:41:16.227Z,45.12
2023-03-05T13:43:49.635Z,45.01
2023-03-05T13:46:47.889Z,44.44
2023-03-05T13:49:23.156Z,44.40
2023-03-05T13:51:56.645Z,46.26
2023-03-05T13:54:27.198Z,45.01
2023-03-05T13:57:00.777Z,46.08
2023-03-05T13:59:31.415Z,47.35
2023-03-05T14:02:01.632Z,48.82
2023-03-05T14:04:42.837Z,48.29
2023-03-05T14:07:39.971Z,49.68
2023-03-05T14:10:40.470Z,50.28
2023-03-05T14:13:19.362Z,48.85
2023-03-05T14:16:07.053Z,49.41
2023-03-05T14:18:36.129Z,50.47
2023-03-05T14:21:10.158Z,51.19
2023-03-05T14:23:39.741Z,51.39
2023-03-05T14:26:39.758Z,50.98
2023-03-05T14:29:07.634Z,52.00
2023-03-05T14:31:56.296Z,51.25
2023-03-05T14:34:35.366Z,51.24
2023-03-05T14:37:07.333Z,51.29
2023-03-05T14:39:53.221Z,50.96
2023-03-05T14:42:38.434Z,51.19
2023-03-05T14:45:24.637Z,52.11
2023-03-05T14:47:54.512Z,51.91
2023-03-05T14:50:32.764Z,52.92
2023-03-05T14:53:17.515Z,51.38
2023-03-05T14:55:49.446Z,51.59
2023-03-05T14:58:22.008Z,51.60
2023-03-05T15:00:51.343Z,50.81
2023-03-05T15:03:22.049Z,51.56
2023-03-05T15:05:56.505Z,52.31
2023-03-05T15:08:27.747Z,52.37
2023-03-05T15:10:56.063Z,52.72
2023-03-05T15:13:24.546Z,51.73
2023-03-05T15:15:53.765Z,53.20
2023-03-05T15:18:23.930Z,53.15
2023-03-05T15:20:57.128Z,52.92
2023-03-05T15:23:25.284Z,53.26
2023-03-05T15:25:53.111Z,54.16
2023-03-05T15:28:21.171Z,54.61
2023-03-05T15:30:49.082Z,54.18
2023-03-05T15:33:18.296Z,54.78
2023-03-05T15:35:46.552Z,55.66
2023-03-05T15:38:16.374Z,54.70
2023-03-05T15:40:45.102Z,54.46
2023-03-05T15:43:13.528Z,56.07
2023-03-05T15:45:41.557Z,56.01
2023-03-05T15:48:09.688Z,56.06
2023-03-05T15:50:42.210Z,56.19
2023-03-05T15:53:13.612Z,56.16
2023-03-05T15:55:45.125Z,54.72
2023-03-05T15:58:17.529Z,54.88
2023-03-05T16:00:47.696Z,56.29
2023-03-05T16:03:16.348Z,55.38
2023-03-05T16:05:44.435Z,56.25
2023-03-05T16:08:12.718Z,55.81
2023-03-05T16:10:41.186Z,56.30
2023-03-05T16:13:13.647Z,56.27
2023-03-05T16:15:43.140Z,57.04
2023-03-05T16:18:15.541Z,57.05
2023-03-05T16:20:43.757Z,57.34
2023-03-05T16:23:11.730Z,57.68
2023-03-05T16:25:39.799Z,57.32
2023-03-05T16:28:07.874Z,57.58
2023-03-05T16:30:35.829Z,57.80
2023-03-05T16:33:03.942Z,57.26
2023-03-05T16:35:31.941Z,57.57
2023-03-05T16:37:59.863Z,56.58
2023-03-05T16:40:44.137Z,57.25
2023-03-05T16:43:15.573Z,58.25
2023-03-05T16:45:43.404Z,58.14
2023-03-05T16:48:11.181Z,58.67
2023-03-05T16:50:39.077Z,58.63
2023-03-05T16:53:07.685Z,59.25
2023-03-05T16:55:37.020Z,59.66
2023-03-05T16:58:05.354Z,59.81
2023-03-05T17:00:33.382Z,59.84
2023-03-05T17:03:01.453Z,59.96
2023-03-05T17:05:30.017Z,61.25
2023-03-05T17:07:57.983Z,60.70
2023-03-05T17:10:26.013Z,61.31
2023-03-05T17:12:54.676Z,61.59
2023-03-05T17:15:23.659Z,61.39
2023-03-05T17:17:51.822Z,62.09
2023-03-05T17:20:20.304Z,61.68
2023-03-05T17:22:48.204Z,62.60
2023-03-05T17:25:16.162Z,61.58
2023-03-05T17:27:44.091Z,62.18
2023-03-05T17:30:13.134Z,62.88
2023-03-05T17:32:44.139Z,64.38
2023-03-05T17:35:19.390Z,64.50
2023-03-05T17:37:47.434Z,64.57
2023-03-05T17:40:16.434Z,64.42
2023-03-05T17:42:44.349Z,64.94
2023-03-05T17:45:12.696Z,65.84
2023-03-05T17:47:40.836Z,67.12
2023-03-05T17:50:10.806Z,66.20
2023-03-05T17:52:40.634Z,66.45
2023-03-05T17:55:11.100Z,67.40
2023-03-05T17:57:44.178Z,67.50
2023-03-05T18:00:24.783Z,67.29
2023-03-05T18:02:53.920Z,67.39
2023-03-05T18:05:23.684Z,67.55
2023-03-05T18:07:52.309Z,67.46
2023-03-05T18:10:21.185Z,67.79
2023-03-05T18:12:49.648Z,68.18
2023-03-05T18:15:20.105Z,67.82
2023-03-05T18:17:48.097Z,68.22
2023-03-05T18:20:32.812Z,68.99
2023-03-05T18:23:02.095Z,69.26
2023-03-05T18:25:33.759Z,71.40
2023-03-05T18:28:04.251Z,72.01
2023-03-05T18:30:32.788Z,72.69
2023-03-05T18:33:01.109Z,72.69
2023-03-05T18:35:29.791Z,73.53
2023-03-05T18:37:57.881Z,74.34
2023-03-05T18:40:29.286Z,74.41
2023-03-05T18:43:00.207Z,75.19
2023-03-05T18:45:29.869Z,75.47
2023-03-05T18:47:57.985Z,75.61
2023-03-05T18:50:28.482Z,76.23
2023-03-05T18:52:56.765Z,75.88
2023-03-05T18:55:27.600Z,76.17
2023-03-05T18:57:56.361Z,76.34
2023-03-05T19:00:27.738Z,76.01
2023-03-05T19:02:57.133Z,75.49
2023-03-05T19:05:26.830Z,75.30
2023-03-05T19:07:55.627Z,75.46
2023-03-05T19:10:27.264Z,75.39
2023-03-05T19:13:39.877Z,74.45
2023-03-05T19:16:08.938Z,74.30
2023-03-05T19:19:26.065Z,74.74
2023-03-05T19:21:59.721Z,74.95
2023-03-05T19:24:30.183Z,75.36
2023-03-05T19:27:01.247Z,75.11
2023-03-05T19:29:33.135Z,75.34
2023-03-05T19:32:01.292Z,76.16
2023-03-05T19:34:29.156Z,75.88
2023-03-05T19:36:57.357Z,75.95
2023-03-05T19:39:25.316Z,76.06
2023-03-05T19:41:53.785Z,76.29
2023-03-05T19:44:23.543Z,75.90
2023-03-05T19:46:52.276Z,75.23
2023-03-05T19:49:20.526Z,75.39
2023-03-05T19:51:49.719Z,75.50
2023-03-05T19:54:19.858Z,74.87
2023-03-05T19:56:49.161Z,76.11
2023-03-05T19:59:21.283Z,74.86
2023-03-05T20:01:50.167Z,74.92
2023-03-05T20:04:24.452Z,74.85
2023-03-05T20:06:52.768Z,75.52
2023-03-05T20:09:20.737Z,75.60
2023-03-05T20:11:50.074Z,77.02
2023-03-05T20:14:18.546Z,76.76
2023-03-05T20:16:46.494Z,78.67
2023-03-05T20:19:17.781Z,78.37
2023-03-05T20:21:45.738Z,78.18
2023-03-05T20:24:20.110Z,79.08
2023-03-05T20:26:48.337Z,78.56
2023-03-05T20:29:18.169Z,79.76
2023-03-05T20:31:47.786Z,79.61
2023-03-05T20:34:21.133Z,79.32
2023-03-05T20:36:52.261Z,80.14
2023-03-05T20:39:20.190Z,80.71
2023-03-05T20:41:48.685Z,80.55
2023-03-05T20:44:17.480Z,80.92
2023-03-05T20:47:39.673Z,80.75
2023-03-05T20:50:11.129Z,81.50
2023-03-05T20:52:39.513Z,80.34
2023-03-05T20:55:08.956Z,80.76
2023-03-05T20:57:36.904Z,80.54
2023-03-05T21:00:05.915Z,80.80
2023-03-05T21:02:33.842Z,80.86
2023-03-05T21:05:01.643Z,81.27
2023-03-05T21:07:29.830Z,81.68
2023-03-05T21:09:57.589Z,81.41
2023-03-05T21:12:25.435Z,80.78
2023-03-05T21:14:53.363Z,81.00
2023-03-05T21:17:21.370Z,80.52
2023-03-05T21:19:49.444Z,81.70
2023-03-05T21:22:17.333Z,81.02
2023-03-05T21:25:24.936Z,80.36
2023-03-05T21:28:16.639Z,80.94
2023-03-05T21:30:51.913Z,81.02
2023-03-05T21:33:23.545Z,81.16
2023-03-05T21:35:52.902Z,81.13
2023-03-05T21:38:27.062Z,81.59
2023-03-05T21:40:54.939Z,82.22
2023-03-05T21:43:24.248Z,81.73
2023-03-05T21:45:54.349Z,81.99
2023-03-05T21:48:23.480Z,81.46
2023-03-05T21:50:52.557Z,82.25
2023-03-05T21:53:21.069Z,81.78
2023-03-05T21:56:25.469Z,82.12
2023-03-05T21:58:54.205Z,82.54
2023-03-05T22:01:22.408Z,81.76
2023-03-05T22:03:50.809Z,81.44
2023-03-05T22:06:19.862Z,80.38
2023-03-05T22:08:48.600Z,80.05
2023-03-05T22:11:18.058Z,79.46
2023-03-05T22:13:45.912Z,80.03
2023-03-05T22:16:24.526Z,78.96
2023-03-05T22:18:52.957Z,77.74
2023-03-05T22:21:23.481Z,78.91
2023-03-05T22:23:51.367Z,79.15
2023-03-05T22:26:19.235Z,79.77
2023-03-05T22:28:47.110Z,80.17
2023-03-05T22:31:27.525Z,80.73
2023-03-05T22:33:55.364Z,81.03
2023-03-05T22:36:24.550Z,81.20
2023-03-05T22:38:52.813Z,80.99
2023-03-05T22:41:21.847Z,81.87
2023-03-05T22:43:50.653Z,82.21
2023-03-05T22:46:24.524Z,81.91
2023-03-05T22:48:52.709Z,81.84
2023-03-05T22:51:20.801Z,82.84
2023-03-05T22:53:48.794Z,81.04
2023-03-05T22:56:19.039Z,82.34
2023-03-05T22:58:47.260Z,83.44
2023-03-05T23:01:18.692Z,82.67
2023-03-05T23:04:44.801Z,82.80
2023-03-05T23:07:34.784Z,83.39
2023-03-05T23:10:07.265Z,83.65
2023-03-05T23:12:37.801Z,84.34
2023-03-05T23:15:09.036Z,84.14
2023-03-05T23:17:36.995Z,85.03
2023-03-05T23:20:08.020Z,85.26
2023-03-05T23:22:40.388Z,84.99
2023-03-05T23:25:08.687Z,85.27
2023-03-05T23:27:36.678Z,85.53
2023-03-05T23:30:24.461Z,84.99
2023-03-05T23:32:58.832Z,85.36
2023-03-05T23:35:51.412Z,85.72
2023-03-05T23:38:19.352Z,86.04
2023-03-05T23:40:50.026Z,86.43
2023-03-05T23:43:18.953Z,86.23
2023-03-05T23:45:49.447Z,86.52
2023-03-05T23:48:18.109Z,86.81
2023-03-05T23:50:48.680Z,86.74
2023-03-05T23:53:22.269Z,87.08
2023-03-05T23:55:50.580Z,86.56
2023-03-05T23:58:20.726Z,86.39
